Chemstar Masa — 3FGM7 — position and weather

sailwx.info

Track history (hours):
 
Tides and Currents Weather Stations Pressure Air Temp Water Temp Dewpoint Dewpoint Depression Visibility Wind Speed Wind Dir Waves Ship Positions

Chemstar Masa

Last reported at 2014-Oct-16 02:33 UTC. Time now 2014-Oct-23 03:10 UTC.
Position N 32°11' E 131°59'.

Length 141 m; draft 5.4 m.

Type: Tanker. MMSI: 353456000.

Date/timePositionNaut miles runAvg speedWind from/ knotsBaromVisibWave heightAir tempDewpointWater temp
2014-Oct-16 02:33N 32°11' E 131°59'1515.0
2014-Oct-16 01:33N 31°56' E 131°55'47013.4
2014-Oct-14 14:23N 30°58' E 122°49'1112.9
2014-Oct-14 13:33N 30°58' E 122°36'1413.7
2014-Oct-14 12:33N 31°01' E 122°21'2912.7
2014-Oct-14 10:16N 31°12' E 121°49'1013.9
2014-Oct-14 09:33N 31°19' E 121°42'1211.6
2014-Oct-14 08:33N 31°26' E 121°30'5 4.6
2014-Oct-14 07:33N 31°30' E 121°31'3 2.6
2014-Oct-14 06:33N 31°32' E 121°34'6 6.1
2014-Oct-14 05:33N 31°35' E 121°27'0 0.0
2014-Oct-14 04:16N 31°35' E 121°27'0 0.0
2014-Oct-14 03:33N 31°35' E 121°27'0 0.0
2014-Oct-14 02:33N 31°35' E 121°27'0 0.2
2014-Oct-14 01:34N 31°35' E 121°28'0 0.5
2014-Oct-14 00:34N 31°35' E 121°27'1 0.5
2014-Oct-13 23:19N 31°36' E 121°27'0 0.0
2014-Oct-13 22:19N 31°36' E 121°27'0 0.0
2014-Oct-13 21:31N 31°36' E 121°27'0 0.0
2014-Oct-13 20:31N 31°36' E 121°27'0 0.0
2014-Oct-13 19:25N 31°36' E 121°27'0 0.0
2014-Oct-13 18:31N 31°36' E 121°27'0 0.0
2014-Oct-13 17:31N 31°36' E 121°27'0 0.0
2014-Oct-13 16:31N 31°36' E 121°27'0 0.0
2014-Oct-13 15:19N 31°36' E 121°27'0 0.0
2014-Oct-13 13:31N 31°36' E 121°27'0 0.0
2014-Oct-13 12:13N 31°36' E 121°27'0 0.0
2014-Oct-13 11:25N 31°36' E 121°27'0 0.0
2014-Oct-13 09:13N 31°36' E 121°27'0 0.0
2014-Oct-13 08:31N 31°36' E 121°27'0 0.0
2014-Oct-13 07:13N 31°36' E 121°27'0 0.0
2014-Oct-13 06:25N 31°36' E 121°27'0 0.0
2014-Oct-13 05:31N 31°36' E 121°27'0 0.0
2014-Oct-13 04:13N 31°36' E 121°27'0 0.0
2014-Oct-13 03:07N 31°36' E 121°27'0 0.0
2014-Oct-13 02:25N 31°36' E 121°27'0 0.0
2014-Oct-13 01:31N 31°36' E 121°27'0 0.0
2014-Oct-13 00:25N 31°36' E 121°27'0 0.0
2014-Oct-12 07:29N 31°36' E 121°27'0 0.0
2014-Oct-12 06:23N 31°36' E 121°27'0 0.0
2014-Oct-12 05:29N 31°36' E 121°27'0 0.0
2014-Oct-12 04:05N 31°36' E 121°27'0 0.0
2014-Oct-12 03:23N 31°36' E 121°27'0 0.0
2014-Oct-12 02:11N 31°36' E 121°27'0 0.0
2014-Oct-12 01:23N 31°36' E 121°27'0 0.0
2014-Oct-12 00:23N 31°36' E 121°27'0 0.0
2014-Oct-11 23:29N 31°36' E 121°27'0 0.0
2014-Oct-11 22:17N 31°36' E 121°27'0 0.0
2014-Oct-11 21:11N 31°36' E 121°27'0 0.0
2014-Oct-11 20:17N 31°36' E 121°27'0 0.0
2014-Oct-11 19:17N 31°36' E 121°27'0 0.0
2014-Oct-11 18:23N 31°36' E 121°27'0 0.0
2014-Oct-11 17:29N 31°36' E 121°27'0 0.0
2014-Oct-11 16:29N 31°36' E 121°27'0 0.0
2014-Oct-11 15:17N 31°36' E 121°27'0 0.0
2014-Oct-11 14:29N 31°36' E 121°27'0 0.0
2014-Oct-11 13:23N 31°36' E 121°27'0 0.0
2014-Oct-11 11:29N 31°36' E 121°27'0 0.0
2014-Oct-11 10:17N 31°36' E 121°27'0 0.0
2014-Oct-11 09:29N 31°36' E 121°27'0 0.0
2014-Oct-11 07:29N 31°36' E 121°27'0 0.0
2014-Oct-11 06:29N 31°36' E 121°27'0 0.0
2014-Oct-11 05:29N 31°36' E 121°27'0 0.0
2014-Oct-11 03:29N 31°36' E 121°27'0 0.0
2014-Oct-11 02:23N 31°36' E 121°27'0 0.0
2014-Oct-10 08:07N 31°36' E 121°27'0 0.0
2014-Oct-10 07:25N 31°36' E 121°27'0 0.0
2014-Oct-10 05:30N 31°36' E 121°27'0 0.0
2014-Oct-10 04:30N 31°36' E 121°27'0 0.0
2014-Oct-10 03:24N 31°36' E 121°27'1 0.0
2014-Oct-09 05:30N 31°35' E 121°28'0 0.0
2014-Oct-09 04:18N 31°35' E 121°28'0 0.0
2014-Oct-09 02:23N 31°35' E 121°28'0 0.0
2014-Oct-09 01:23N 31°35' E 121°28'0 0.0
2014-Oct-09 00:29N 31°35' E 121°28'0 0.0
2014-Oct-08 23:11N 31°35' E 121°28'0 0.0
2014-Oct-08 22:17N 31°35' E 121°28'0 0.0
2014-Oct-08 21:23N 31°35' E 121°28'0 0.0
2014-Oct-08 20:29N 31°35' E 121°28'0 0.0
2014-Oct-08 19:29N 31°35' E 121°28'0 0.0
2014-Oct-08 18:29N 31°35' E 121°28'0 0.0
2014-Oct-08 17:29N 31°35' E 121°28'0 0.0
2014-Oct-08 16:17N 31°35' E 121°28'0 0.0
2014-Oct-08 15:05N 31°35' E 121°28'0 0.0
2014-Oct-08 14:17N 31°35' E 121°28'0 0.0
2014-Oct-08 12:29N 31°35' E 121°28'0 0.0
2014-Oct-08 11:29N 31°35' E 121°28'0 0.0
2014-Oct-08 10:29N 31°35' E 121°28'0 0.0
2014-Oct-08 09:29N 31°35' E 121°28'0 0.0
2014-Oct-08 08:29N 31°35' E 121°28'0 0.0
2014-Oct-08 07:29N 31°35' E 121°28'0 0.0
2014-Oct-08 06:29N 31°35' E 121°28'0 0.0
2014-Oct-08 05:23N 31°35' E 121°28'0 0.0
2014-Oct-06 17:28N 31°35' E 121°28'0 0.0
2014-Oct-06 16:22N 31°35' E 121°28'0 0.0
2014-Oct-06 15:04N 31°35' E 121°28'0 0.0
2014-Oct-06 10:10N 31°35' E 121°28'0 0.0
2014-Oct-06 04:13N 31°35' E 121°28'  
Track history (hours):
 
Tides and Currents Weather Stations Pressure Air Temp Water Temp Dewpoint Dewpoint Depression Visibility Wind Speed Wind Dir Waves Ship Positions

Chemstar Masa

Last reported at 2014-Oct-16 02:33 UTC. Time now 2014-Oct-23 03:10 UTC.
Position N 32°11' E 131°59'.

Length 141 m; draft 5.4 m.

Type: Tanker. MMSI: 353456000.

Date/timePositionNaut miles runAvg speedWind from/ knotsBaromVisibWave heightAir tempDewpointWater temp
2014-Oct-16 02:33N 32°11' E 131°59'1515.0
2014-Oct-16 01:33N 31°56' E 131°55'47013.4
2014-Oct-14 14:23N 30°58' E 122°49'1112.9
2014-Oct-14 13:33N 30°58' E 122°36'1413.7
2014-Oct-14 12:33N 31°01' E 122°21'2912.7
2014-Oct-14 10:16N 31°12' E 121°49'1013.9
2014-Oct-14 09:33N 31°19' E 121°42'1211.6
2014-Oct-14 08:33N 31°26' E 121°30'5 4.6
2014-Oct-14 07:33N 31°30' E 121°31'3 2.6
2014-Oct-14 06:33N 31°32' E 121°34'6 6.1
2014-Oct-14 05:33N 31°35' E 121°27'0 0.0
2014-Oct-14 04:16N 31°35' E 121°27'0 0.0
2014-Oct-14 03:33N 31°35' E 121°27'0 0.0
2014-Oct-14 02:33N 31°35' E 121°27'0 0.2
2014-Oct-14 01:34N 31°35' E 121°28'0 0.5
2014-Oct-14 00:34N 31°35' E 121°27'1 0.5
2014-Oct-13 23:19N 31°36' E 121°27'0 0.0
2014-Oct-13 22:19N 31°36' E 121°27'0 0.0
2014-Oct-13 21:31N 31°36' E 121°27'0 0.0
2014-Oct-13 20:31N 31°36' E 121°27'0 0.0
2014-Oct-13 19:25N 31°36' E 121°27'0 0.0
2014-Oct-13 18:31N 31°36' E 121°27'0 0.0
2014-Oct-13 17:31N 31°36' E 121°27'0 0.0
2014-Oct-13 16:31N 31°36' E 121°27'0 0.0
2014-Oct-13 15:19N 31°36' E 121°27'0 0.0
2014-Oct-13 13:31N 31°36' E 121°27'0 0.0
2014-Oct-13 12:13N 31°36' E 121°27'0 0.0
2014-Oct-13 11:25N 31°36' E 121°27'0 0.0
2014-Oct-13 09:13N 31°36' E 121°27'0 0.0
2014-Oct-13 08:31N 31°36' E 121°27'0 0.0
2014-Oct-13 07:13N 31°36' E 121°27'0 0.0
2014-Oct-13 06:25N 31°36' E 121°27'0 0.0
2014-Oct-13 05:31N 31°36' E 121°27'0 0.0
2014-Oct-13 04:13N 31°36' E 121°27'0 0.0
2014-Oct-13 03:07N 31°36' E 121°27'0 0.0
2014-Oct-13 02:25N 31°36' E 121°27'0 0.0
2014-Oct-13 01:31N 31°36' E 121°27'0 0.0
2014-Oct-13 00:25N 31°36' E 121°27'0 0.0
2014-Oct-12 07:29N 31°36' E 121°27'0 0.0
2014-Oct-12 06:23N 31°36' E 121°27'0 0.0
2014-Oct-12 05:29N 31°36' E 121°27'0 0.0
2014-Oct-12 04:05N 31°36' E 121°27'0 0.0
2014-Oct-12 03:23N 31°36' E 121°27'0 0.0
2014-Oct-12 02:11N 31°36' E 121°27'0 0.0
2014-Oct-12 01:23N 31°36' E 121°27'0 0.0
2014-Oct-12 00:23N 31°36' E 121°27'0 0.0
2014-Oct-11 23:29N 31°36' E 121°27'0 0.0
2014-Oct-11 22:17N 31°36' E 121°27'0 0.0
2014-Oct-11 21:11N 31°36' E 121°27'0 0.0
2014-Oct-11 20:17N 31°36' E 121°27'0 0.0
2014-Oct-11 19:17N 31°36' E 121°27'0 0.0
2014-Oct-11 18:23N 31°36' E 121°27'0 0.0
2014-Oct-11 17:29N 31°36' E 121°27'0 0.0
2014-Oct-11 16:29N 31°36' E 121°27'0 0.0
2014-Oct-11 15:17N 31°36' E 121°27'0 0.0
2014-Oct-11 14:29N 31°36' E 121°27'0 0.0
2014-Oct-11 13:23N 31°36' E 121°27'0 0.0
2014-Oct-11 11:29N 31°36' E 121°27'0 0.0
2014-Oct-11 10:17N 31°36' E 121°27'0 0.0
2014-Oct-11 09:29N 31°36' E 121°27'0 0.0
2014-Oct-11 07:29N 31°36' E 121°27'0 0.0
2014-Oct-11 06:29N 31°36' E 121°27'0 0.0
2014-Oct-11 05:29N 31°36' E 121°27'0 0.0
2014-Oct-11 03:29N 31°36' E 121°27'0 0.0
2014-Oct-11 02:23N 31°36' E 121°27'0 0.0
2014-Oct-10 08:07N 31°36' E 121°27'0 0.0
2014-Oct-10 07:25N 31°36' E 121°27'0 0.0
2014-Oct-10 05:30N 31°36' E 121°27'0 0.0
2014-Oct-10 04:30N 31°36' E 121°27'0 0.0
2014-Oct-10 03:24N 31°36' E 121°27'1 0.0
2014-Oct-09 05:30N 31°35' E 121°28'0 0.0
2014-Oct-09 04:18N 31°35' E 121°28'0 0.0
2014-Oct-09 02:23N 31°35' E 121°28'0 0.0
2014-Oct-09 01:23N 31°35' E 121°28'0 0.0
2014-Oct-09 00:29N 31°35' E 121°28'0 0.0
2014-Oct-08 23:11N 31°35' E 121°28'0 0.0
2014-Oct-08 22:17N 31°35' E 121°28'0 0.0
2014-Oct-08 21:23N 31°35' E 121°28'0 0.0
2014-Oct-08 20:29N 31°35' E 121°28'0 0.0
2014-Oct-08 19:29N 31°35' E 121°28'0 0.0
2014-Oct-08 18:29N 31°35' E 121°28'0 0.0
2014-Oct-08 17:29N 31°35' E 121°28'0 0.0
2014-Oct-08 16:17N 31°35' E 121°28'0 0.0
2014-Oct-08 15:05N 31°35' E 121°28'0 0.0
2014-Oct-08 14:17N 31°35' E 121°28'0 0.0
2014-Oct-08 12:29N 31°35' E 121°28'0 0.0
2014-Oct-08 11:29N 31°35' E 121°28'0 0.0
2014-Oct-08 10:29N 31°35' E 121°28'0 0.0
2014-Oct-08 09:29N 31°35' E 121°28'0 0.0
2014-Oct-08 08:29N 31°35' E 121°28'0 0.0
2014-Oct-08 07:29N 31°35' E 121°28'0 0.0
2014-Oct-08 06:29N 31°35' E 121°28'0 0.0
2014-Oct-08 05:23N 31°35' E 121°28'0 0.0
2014-Oct-06 17:28N 31°35' E 121°28'0 0.0
2014-Oct-06 16:22N 31°35' E 121°28'0 0.0
2014-Oct-06 15:04N 31°35' E 121°28'0 0.0
2014-Oct-06 10:10N 31°35' E 121°28'0 0.0
2014-Oct-06 04:13N 31°35' E 121°28'  

Dump ship's entire track history